TimeCDT,TemperatureF,Dew PointF,Humidity,Sea Level PressureIn,VisibilityMPH,Wind Direction,Wind SpeedMPH,Gust SpeedMPH,PrecipitationIn,Events,Conditions,WindDirDegrees,DateUTC
12:15 AM,66.6,57.4,72,30.05,10.0,SSE,5.8,-,N/A,,Clear,150,2013-07-12 05:15:00
12:35 AM,68.5,57.0,67,30.04,10.0,SSE,8.1,-,N/A,,Clear,160,2013-07-12 05:35:00
12:55 AM,70.3,56.7,62,30.05,10.0,South,8.1,-,N/A,,Clear,170,2013-07-12 05:55:00
1:15 AM,69.3,57.0,65,30.04,10.0,SSE,6.9,-,N/A,,Clear,150,2013-07-12 06:15:00
1:35 AM,68.9,57.2,66,30.04,10.0,SSE,8.1,-,N/A,,Clear,160,2013-07-12 06:35:00
1:55 AM,68.9,57.4,67,30.05,10.0,SSE,6.9,-,N/A,,Clear,150,2013-07-12 06:55:00
2:15 AM,67.5,57.6,70,30.04,10.0,SSE,6.9,-,N/A,,Clear,150,2013-07-12 07:15:00
2:35 AM,67.5,57.6,70,30.05,10.0,SSE,6.9,-,N/A,,Clear,150,2013-07-12 07:35:00
2:55 AM,68.0,57.6,69,30.05,10.0,SSE,6.9,-,N/A,,Clear,160,2013-07-12 07:55:00
3:15 AM,67.3,57.6,71,30.05,10.0,SSE,5.8,-,N/A,,Clear,160,2013-07-12 08:15:00
3:35 AM,66.7,57.4,72,30.05,10.0,SSE,4.6,-,N/A,,Clear,160,2013-07-12 08:35:00
3:55 AM,66.0,57.4,74,30.06,10.0,SE,4.6,-,N/A,,Clear,140,2013-07-12 08:55:00
4:15 AM,65.1,57.7,77,30.06,10.0,ESE,3.5,-,N/A,,Clear,120,2013-07-12 09:15:00
4:35 AM,64.6,58.1,79,30.06,10.0,ESE,4.6,-,N/A,,Scattered Clouds,110,2013-07-12 09:35:00
4:55 AM,63.7,58.1,82,30.07,10.0,Calm,Calm,-,N/A,,Scattered Clouds,0,2013-07-12 09:55:00
5:15 AM,63.0,58.3,85,30.07,10.0,Calm,Calm,-,N/A,,Mostly Cloudy,0,2013-07-12 10:15:00
5:35 AM,62.6,58.1,85,30.07,10.0,ESE,3.5,-,N/A,,Scattered Clouds,120,2013-07-12 10:35:00
5:55 AM,62.2,58.3,87,30.08,10.0,ESE,3.5,-,N/A,,Scattered Clouds,120,2013-07-12 10:55:00
6:15 AM,61.9,58.1,87,30.08,7.0,SE,3.5,-,N/A,,Scattered Clouds,130,2013-07-12 11:15:00
6:35 AM,63.1,59.0,86,30.08,7.0,East,3.5,-,N/A,,Scattered Clouds,100,2013-07-12 11:35:00
6:55 AM,63.5,59.0,85,30.08,7.0,ESE,5.8,-,N/A,,Clear,120,2013-07-12 11:55:00
7:15 AM,66.0,59.2,79,30.09,10.0,ESE,3.5,-,N/A,,Clear,110,2013-07-12 12:15:00
7:35 AM,66.7,59.7,78,30.09,10.0,ESE,5.8,-,N/A,,Clear,120,2013-07-12 12:35:00
7:55 AM,68.4,59.4,73,30.08,10.0,ESE,5.8,-,N/A,,Clear,120,2013-07-12 12:55:00
8:15 AM,70.0,59.5,69,30.09,10.0,SE,5.8,-,N/A,,Clear,140,2013-07-12 13:15:00
8:35 AM,73.0,57.9,59,30.08,10.0,SSE,10.4,-,N/A,,Clear,160,2013-07-12 13:35:00
8:55 AM,73.9,57.9,57,30.08,10.0,South,10.4,-,N/A,,Clear,170,2013-07-12 13:55:00
9:15 AM,75.2,57.6,54,30.09,10.0,SSE,10.4,-,N/A,,Clear,160,2013-07-12 14:15:00
9:35 AM,77.0,56.8,50,30.08,10.0,SSE,13.8,19.6,N/A,,Scattered Clouds,160,2013-07-12 14:35:00
9:55 AM,77.2,56.3,48,30.08,10.0,SSE,11.5,18.4,N/A,,Scattered Clouds,150,2013-07-12 14:55:00
10:15 AM,78.1,56.3,47,30.08,10.0,SE,16.1,-,N/A,,Clear,140,2013-07-12 15:15:00
10:35 AM,79.2,56.5,46,30.08,10.0,SSE,15.0,19.6,N/A,,Clear,160,2013-07-12 15:35:00
10:55 AM,79.7,56.5,45,30.07,10.0,SE,17.3,-,N/A,,Clear,140,2013-07-12 15:55:00
11:15 AM,80.6,56.7,44,30.07,10.0,SSE,12.7,20.7,N/A,,Clear,160,2013-07-12 16:15:00
11:35 AM,80.6,56.8,44,30.07,10.0,SSE,12.7,18.4,N/A,,Clear,160,2013-07-12 16:35:00
11:55 AM,81.5,57.2,43,30.06,10.0,South,15.0,-,N/A,,Clear,170,2013-07-12 16:55:00
12:15 PM,82.2,57.6,43,30.06,10.0,SSE,13.8,19.6,N/A,,Clear,160,2013-07-12 17:15:00
12:35 PM,82.0,57.7,43,30.05,10.0,SSE,15.0,20.7,N/A,,Clear,150,2013-07-12 17:35:00
12:55 PM,83.1,57.7,42,30.05,10.0,SSE,16.1,19.6,N/A,,Clear,160,2013-07-12 17:55:00
1:15 PM,83.3,58.3,42,30.05,10.0,SE,11.5,19.6,N/A,,Clear,130,2013-07-12 18:15:00
1:35 PM,83.7,58.1,42,30.04,10.0,SE,15.0,19.6,N/A,,Clear,140,2013-07-12 18:35:00
1:55 PM,84.6,57.9,40,30.03,10.0,SE,16.1,20.7,N/A,,Clear,140,2013-07-12 18:55:00
2:15 PM,84.7,56.7,38,30.03,10.0,SSE,17.3,23.0,N/A,,Clear,160,2013-07-12 19:15:00
2:35 PM,85.8,56.5,37,30.03,10.0,SSE,16.1,-,N/A,,Clear,160,2013-07-12 19:35:00
2:55 PM,86.4,57.2,37,30.03,10.0,SSE,13.8,21.9,N/A,,Clear,160,2013-07-12 19:55:00
3:15 PM,85.8,57.2,38,30.03,10.0,SSE,16.1,24.2,N/A,,Clear,150,2013-07-12 20:15:00
3:35 PM,86.4,56.7,36,30.02,10.0,SSE,16.1,24.2,N/A,,Clear,160,2013-07-12 20:35:00
4:15 PM,86.0,57.4,38,30.01,10.0,SE,16.1,21.9,N/A,,Clear,140,2013-07-12 21:15:00
4:35 PM,86.0,56.8,37,30.01,10.0,SE,16.1,21.9,N/A,,Clear,140,2013-07-12 21:35:00
4:55 PM,86.0,56.3,36,30.00,10.0,SSE,15.0,21.9,N/A,,Clear,160,2013-07-12 21:55:00
5:15 PM,85.6,56.3,37,30.00,10.0,SSE,15.0,20.7,N/A,,Clear,160,2013-07-12 22:15:00
5:35 PM,85.5,55.4,36,30.00,10.0,SSE,17.3,-,N/A,,Clear,150,2013-07-12 22:35:00
5:55 PM,85.1,56.5,38,30.00,10.0,SSE,11.5,19.6,N/A,,Clear,160,2013-07-12 22:55:00
6:15 PM,84.6,56.8,39,30.00,10.0,SE,12.7,17.3,N/A,,Clear,140,2013-07-12 23:15:00
6:35 PM,83.7,57.4,41,30.00,10.0,SE,13.8,19.6,N/A,,Clear,140,2013-07-12 23:35:00
6:55 PM,83.3,58.1,42,30.00,10.0,SE,12.7,-,N/A,,Clear,140,2013-07-12 23:55:00
7:15 PM,82.2,58.1,44,30.00,10.0,SSE,13.8,18.4,N/A,,Clear,150,2013-07-13 00:15:00
7:35 PM,81.5,57.6,44,30.00,10.0,SSE,12.7,-,N/A,,Clear,150,2013-07-13 00:35:00
7:55 PM,80.6,57.7,45,30.00,10.0,SSE,11.5,-,N/A,,Clear,150,2013-07-13 00:55:00
8:15 PM,79.2,57.6,47,29.99,10.0,SSE,11.5,-,N/A,,Clear,150,2013-07-13 01:15:00
8:35 PM,78.1,57.7,49,30.00,10.0,SSE,6.9,-,N/A,,Clear,150,2013-07-13 01:35:00
8:55 PM,76.1,58.6,55,30.00,10.0,SE,6.9,-,N/A,,Clear,140,2013-07-13 01:55:00
9:15 PM,74.5,59.5,60,30.00,10.0,SE,5.8,-,N/A,,Clear,130,2013-07-13 02:15:00
9:35 PM,73.6,59.9,62,29.99,10.0,SE,6.9,-,N/A,,Clear,130,2013-07-13 02:35:00
9:55 PM,73.8,59.0,60,29.99,10.0,SE,8.1,-,N/A,,Clear,130,2013-07-13 02:55:00
10:15 PM,73.6,58.8,60,29.99,10.0,SE,8.1,-,N/A,,Clear,130,2013-07-13 03:15:00
10:35 PM,72.9,58.8,61,29.99,10.0,SE,6.9,-,N/A,,Scattered Clouds,130,2013-07-13 03:35:00
10:55 PM,71.8,59.0,64,29.99,10.0,ESE,5.8,-,N/A,,Scattered Clouds,120,2013-07-13 03:55:00
11:15 PM,70.5,59.4,68,30.00,10.0,ESE,4.6,-,N/A,,Clear,120,2013-07-13 04:15:00
11:35 PM,69.4,59.5,71,30.01,10.0,ESE,3.5,-,N/A,,Clear,120,2013-07-13 04:35:00
11:55 PM,69.1,59.9,72,30.02,10.0,East,4.6,-,N/A,,Clear,100,2013-07-13 04:55:00